sensor_id;sensor_type;location;lat;lon;timestamp;P1;durP1;ratioP1;P2;durP2;ratioP2
67178;SDS011;54112;53.512;49.144;2022-08-19T00:00:17;56.30;;;53.70;;
67178;SDS011;54112;53.512;49.144;2022-08-19T00:02:44;52.53;;;49.67;;
67178;SDS011;54112;53.512;49.144;2022-08-19T00:05:12;60.50;;;57.45;;
67178;SDS011;54112;53.512;49.144;2022-08-19T00:07:38;49.88;;;47.05;;
67178;SDS011;54112;53.512;49.144;2022-08-19T00:10:07;58.40;;;55.80;;
67178;SDS011;54112;53.512;49.144;2022-08-19T00:12:33;62.42;;;58.55;;
67178;SDS011;54112;53.512;49.144;2022-08-19T00:14:59;60.85;;;57.60;;
67178;SDS011;54112;53.512;49.144;2022-08-19T00:17:25;59.20;;;55.85;;
67178;SDS011;54112;53.512;49.144;2022-08-19T00:19:52;52.90;;;50.20;;
67178;SDS011;54112;53.512;49.144;2022-08-19T00:22:17;51.22;;;48.88;;
67178;SDS011;54112;53.512;49.144;2022-08-19T00:24:44;52.38;;;49.65;;
67178;SDS011;54112;53.512;49.144;2022-08-19T00:27:11;50.33;;;47.75;;
67178;SDS011;54112;53.512;49.144;2022-08-19T00:29:36;61.83;;;59.20;;
67178;SDS011;54112;53.512;49.144;2022-08-19T00:32:02;54.10;;;51.70;;
67178;SDS011;54112;53.512;49.144;2022-08-19T00:34:28;57.88;;;54.92;;
67178;SDS011;54112;53.512;49.144;2022-08-19T00:36:55;49.78;;;47.15;;
67178;SDS011;54112;53.512;49.144;2022-08-19T00:39:20;60.55;;;57.60;;
67178;SDS011;54112;53.512;49.144;2022-08-19T00:41:47;54.53;;;51.35;;
67178;SDS011;54112;53.512;49.144;2022-08-19T00:44:24;65.03;;;61.85;;
67178;SDS011;54112;53.512;49.144;2022-08-19T00:46:51;51.83;;;48.88;;
67178;SDS011;54112;53.512;49.144;2022-08-19T00:51:45;59.90;;;56.95;;
67178;SDS011;54112;53.512;49.144;2022-08-19T00:54:12;64.53;;;60.53;;
67178;SDS011;54112;53.512;49.144;2022-08-19T00:56:37;50.88;;;47.97;;
67178;SDS011;54112;53.512;49.144;2022-08-19T00:59:03;62.22;;;58.67;;
67178;SDS011;54112;53.512;49.144;2022-08-19T01:01:35;53.70;;;50.35;;
67178;SDS011;54112;53.512;49.144;2022-08-19T01:04:01;55.67;;;52.10;;
67178;SDS011;54112;53.512;49.144;2022-08-19T01:06:27;57.10;;;53.88;;
67178;SDS011;54112;53.512;49.144;2022-08-19T01:08:56;52.63;;;49.75;;
67178;SDS011;54112;53.512;49.144;2022-08-19T01:11:22;49.60;;;47.13;;
67178;SDS011;54112;53.512;49.144;2022-08-19T01:13:48;51.50;;;48.83;;
67178;SDS011;54112;53.512;49.144;2022-08-19T01:16:14;51.63;;;48.95;;
67178;SDS011;54112;53.512;49.144;2022-08-19T01:18:41;48.45;;;45.20;;
67178;SDS011;54112;53.512;49.144;2022-08-19T01:21:09;62.90;;;59.58;;
67178;SDS011;54112;53.512;49.144;2022-08-19T01:23:36;48.40;;;45.80;;
67178;SDS011;54112;53.512;49.144;2022-08-19T01:26:12;62.47;;;59.22;;
67178;SDS011;54112;53.512;49.144;2022-08-19T01:28:39;48.10;;;45.78;;
67178;SDS011;54112;53.512;49.144;2022-08-19T01:31:06;62.10;;;58.47;;
67178;SDS011;54112;53.512;49.144;2022-08-19T01:33:32;60.83;;;57.88;;
67178;SDS011;54112;53.512;49.144;2022-08-19T01:36:09;57.80;;;54.70;;
67178;SDS011;54112;53.512;49.144;2022-08-19T01:38:37;57.75;;;54.53;;
67178;SDS011;54112;53.512;49.144;2022-08-19T01:41:04;53.60;;;50.20;;
67178;SDS011;54112;53.512;49.144;2022-08-19T01:43:29;54.72;;;51.40;;
67178;SDS011;54112;53.512;49.144;2022-08-19T01:45:56;49.08;;;46.42;;
67178;SDS011;54112;53.512;49.144;2022-08-19T01:48:22;56.80;;;53.83;;
67178;SDS011;54112;53.512;49.144;2022-08-19T01:50:49;57.30;;;54.63;;
67178;SDS011;54112;53.512;49.144;2022-08-19T01:53:14;51.10;;;48.72;;
67178;SDS011;54112;53.512;49.144;2022-08-19T01:55:41;49.80;;;47.47;;
67178;SDS011;54112;53.512;49.144;2022-08-19T01:58:08;52.75;;;49.28;;
67178;SDS011;54112;53.512;49.144;2022-08-19T02:00:36;50.80;;;47.70;;
67178;SDS011;54112;53.512;49.144;2022-08-19T02:03:02;45.90;;;43.47;;
67178;SDS011;54112;53.512;49.144;2022-08-19T02:05:28;51.50;;;49.22;;
67178;SDS011;54112;53.512;49.144;2022-08-19T02:07:55;56.58;;;54.05;;
67178;SDS011;54112;53.512;49.144;2022-08-19T02:10:21;48.90;;;46.13;;
67178;SDS011;54112;53.512;49.144;2022-08-19T02:12:48;51.65;;;48.60;;
67178;SDS011;54112;53.512;49.144;2022-08-19T02:15:15;48.45;;;45.55;;
67178;SDS011;54112;53.512;49.144;2022-08-19T02:17:40;56.50;;;53.60;;
67178;SDS011;54112;53.512;49.144;2022-08-19T02:20:07;53.63;;;50.97;;
67178;SDS011;54112;53.512;49.144;2022-08-19T02:22:33;56.60;;;53.75;;
67178;SDS011;54112;53.512;49.144;2022-08-19T02:24:59;55.80;;;53.50;;
67178;SDS011;54112;53.512;49.144;2022-08-19T02:27:25;48.05;;;45.85;;
67178;SDS011;54112;53.512;49.144;2022-08-19T02:29:51;48.47;;;45.83;;
67178;SDS011;54112;53.512;49.144;2022-08-19T02:32:18;47.80;;;45.35;;
67178;SDS011;54112;53.512;49.144;2022-08-19T02:34:47;53.63;;;50.92;;
67178;SDS011;54112;53.512;49.144;2022-08-19T02:37:13;63.13;;;58.50;;
67178;SDS011;54112;53.512;49.144;2022-08-19T02:39:58;56.25;;;52.83;;
67178;SDS011;54112;53.512;49.144;2022-08-19T02:42:24;50.38;;;47.70;;
67178;SDS011;54112;53.512;49.144;2022-08-19T02:44:49;52.20;;;49.63;;
67178;SDS011;54112;53.512;49.144;2022-08-19T02:47:15;52.42;;;48.85;;
67178;SDS011;54112;53.512;49.144;2022-08-19T02:49:41;51.25;;;48.38;;
67178;SDS011;54112;53.512;49.144;2022-08-19T02:52:07;59.60;;;56.85;;
67178;SDS011;54112;53.512;49.144;2022-08-19T02:54:33;50.55;;;47.20;;
67178;SDS011;54112;53.512;49.144;2022-08-19T02:56:58;47.58;;;44.95;;
67178;SDS011;54112;53.512;49.144;2022-08-19T02:59:25;55.42;;;52.72;;
67178;SDS011;54112;53.512;49.144;2022-08-19T03:01:51;59.10;;;55.55;;
67178;SDS011;54112;53.512;49.144;2022-08-19T03:04:18;51.90;;;48.45;;
67178;SDS011;54112;53.512;49.144;2022-08-19T03:06:45;54.92;;;51.80;;
67178;SDS011;54112;53.512;49.144;2022-08-19T03:09:11;58.60;;;55.67;;
67178;SDS011;54112;53.512;49.144;2022-08-19T03:11:38;57.10;;;54.20;;
67178;SDS011;54112;53.512;49.144;2022-08-19T03:14:04;59.95;;;56.20;;
67178;SDS011;54112;53.512;49.144;2022-08-19T03:16:31;61.40;;;58.17;;
67178;SDS011;54112;53.512;49.144;2022-08-19T03:18:57;48.33;;;46.03;;
67178;SDS011;54112;53.512;49.144;2022-08-19T03:21:27;63.17;;;59.78;;
67178;SDS011;54112;53.512;49.144;2022-08-19T03:23:54;62.15;;;58.53;;
67178;SDS011;54112;53.512;49.144;2022-08-19T03:26:19;59.00;;;55.58;;
67178;SDS011;54112;53.512;49.144;2022-08-19T03:28:45;49.42;;;46.63;;
67178;SDS011;54112;53.512;49.144;2022-08-19T03:31:16;50.58;;;48.03;;
67178;SDS011;54112;53.512;49.144;2022-08-19T03:33:41;50.97;;;48.22;;
67178;SDS011;54112;53.512;49.144;2022-08-19T03:36:09;64.53;;;60.55;;
67178;SDS011;54112;53.512;49.144;2022-08-19T03:38:45;59.25;;;56.63;;
67178;SDS011;54112;53.512;49.144;2022-08-19T03:41:12;59.85;;;56.80;;
67178;SDS011;54112;53.512;49.144;2022-08-19T03:43:39;59.72;;;56.95;;
67178;SDS011;54112;53.512;49.144;2022-08-19T03:46:06;64.07;;;60.22;;
67178;SDS011;54112;53.512;49.144;2022-08-19T03:48:33;51.33;;;48.92;;
67178;SDS011;54112;53.512;49.144;2022-08-19T03:50:59;50.15;;;47.55;;
67178;SDS011;54112;53.512;49.144;2022-08-19T03:53:26;65.28;;;61.28;;
67178;SDS011;54112;53.512;49.144;2022-08-19T03:55:52;55.63;;;52.83;;
67178;SDS011;54112;53.512;49.144;2022-08-19T03:58:19;62.15;;;59.00;;
67178;SDS011;54112;53.512;49.144;2022-08-19T04:00:45;52.28;;;49.42;;
67178;SDS011;54112;53.512;49.144;2022-08-19T04:03:11;53.47;;;50.88;;
67178;SDS011;54112;53.512;49.144;2022-08-19T04:05:36;64.43;;;60.58;;
67178;SDS011;54112;53.512;49.144;2022-08-19T04:08:03;62.75;;;59.65;;
67178;SDS011;54112;53.512;49.144;2022-08-19T04:10:29;51.58;;;48.88;;
67178;SDS011;54112;53.512;49.144;2022-08-19T04:12:56;62.55;;;59.72;;
67178;SDS011;54112;53.512;49.144;2022-08-19T04:15:22;60.97;;;58.40;;
67178;SDS011;54112;53.512;49.144;2022-08-19T04:17:48;55.70;;;52.92;;
67178;SDS011;54112;53.512;49.144;2022-08-19T04:20:14;66.38;;;62.60;;
67178;SDS011;54112;53.512;49.144;2022-08-19T04:22:39;65.63;;;61.45;;
67178;SDS011;54112;53.512;49.144;2022-08-19T04:25:05;53.00;;;50.45;;
67178;SDS011;54112;53.512;49.144;2022-08-19T04:27:31;62.45;;;58.78;;
67178;SDS011;54112;53.512;49.144;2022-08-19T04:29:58;62.55;;;59.80;;
67178;SDS011;54112;53.512;49.144;2022-08-19T04:32:24;56.08;;;53.15;;
67178;SDS011;54112;53.512;49.144;2022-08-19T04:34:50;62.20;;;58.63;;
67178;SDS011;54112;53.512;49.144;2022-08-19T04:37:15;65.13;;;61.75;;
67178;SDS011;54112;53.512;49.144;2022-08-19T04:39:41;64.93;;;61.30;;
67178;SDS011;54112;53.512;49.144;2022-08-19T04:42:30;60.22;;;57.40;;
67178;SDS011;54112;53.512;49.144;2022-08-19T04:45:09;66.28;;;62.92;;
67178;SDS011;54112;53.512;49.144;2022-08-19T04:47:36;63.88;;;60.97;;
67178;SDS011;54112;53.512;49.144;2022-08-19T04:50:02;52.45;;;49.65;;
67178;SDS011;54112;53.512;49.144;2022-08-19T04:52:30;67.50;;;64.53;;
67178;SDS011;54112;53.512;49.144;2022-08-19T04:54:57;58.17;;;55.40;;
67178;SDS011;54112;53.512;49.144;2022-08-19T04:57:22;56.75;;;53.35;;
67178;SDS011;54112;53.512;49.144;2022-08-19T04:59:48;64.40;;;61.50;;
67178;SDS011;54112;53.512;49.144;2022-08-19T05:02:14;55.38;;;52.33;;
67178;SDS011;54112;53.512;49.144;2022-08-19T05:04:40;62.05;;;58.97;;
67178;SDS011;54112;53.512;49.144;2022-08-19T05:07:07;64.43;;;61.28;;
67178;SDS011;54112;53.512;49.144;2022-08-19T05:09:33;63.25;;;60.50;;
67178;SDS011;54112;53.512;49.144;2022-08-19T05:12:00;67.50;;;63.45;;
67178;SDS011;54112;53.512;49.144;2022-08-19T05:14:26;58.38;;;54.97;;
67178;SDS011;54112;53.512;49.144;2022-08-19T05:16:51;59.33;;;56.15;;
67178;SDS011;54112;53.512;49.144;2022-08-19T05:19:17;63.15;;;60.00;;
67178;SDS011;54112;53.512;49.144;2022-08-19T05:22:01;61.55;;;58.00;;
67178;SDS011;54112;53.512;49.144;2022-08-19T05:24:49;71.32;;;67.80;;
67178;SDS011;54112;53.512;49.144;2022-08-19T05:27:14;64.18;;;61.17;;
67178;SDS011;54112;53.512;49.144;2022-08-19T05:29:40;67.32;;;63.58;;
67178;SDS011;54112;53.512;49.144;2022-08-19T05:32:06;68.72;;;65.35;;
67178;SDS011;54112;53.512;49.144;2022-08-19T05:34:36;68.30;;;64.95;;
67178;SDS011;54112;53.512;49.144;2022-08-19T05:37:03;64.20;;;60.97;;
67178;SDS011;54112;53.512;49.144;2022-08-19T05:39:31;66.78;;;63.72;;
67178;SDS011;54112;53.512;49.144;2022-08-19T05:41:58;62.45;;;58.47;;
67178;SDS011;54112;53.512;49.144;2022-08-19T05:44:25;64.55;;;60.08;;
67178;SDS011;54112;53.512;49.144;2022-08-19T05:46:51;68.38;;;62.13;;
67178;SDS011;54112;53.512;49.144;2022-08-19T05:49:21;63.40;;;59.70;;
67178;SDS011;54112;53.512;49.144;2022-08-19T05:51:47;73.05;;;67.15;;
67178;SDS011;54112;53.512;49.144;2022-08-19T05:54:15;60.80;;;56.97;;
67178;SDS011;54112;53.512;49.144;2022-08-19T05:56:42;65.38;;;61.00;;
67178;SDS011;54112;53.512;49.144;2022-08-19T05:59:08;64.82;;;61.88;;
67178;SDS011;54112;53.512;49.144;2022-08-19T06:01:37;68.78;;;65.43;;
67178;SDS011;54112;53.512;49.144;2022-08-19T06:04:04;70.18;;;66.60;;
67178;SDS011;54112;53.512;49.144;2022-08-19T06:06:29;68.40;;;64.65;;
67178;SDS011;54112;53.512;49.144;2022-08-19T06:08:55;72.40;;;67.80;;
67178;SDS011;54112;53.512;49.144;2022-08-19T06:11:31;78.55;;;74.40;;
67178;SDS011;54112;53.512;49.144;2022-08-19T06:14:01;61.03;;;58.08;;
67178;SDS011;54112;53.512;49.144;2022-08-19T06:16:27;60.42;;;57.67;;
67178;SDS011;54112;53.512;49.144;2022-08-19T06:18:55;61.97;;;57.97;;
67178;SDS011;54112;53.512;49.144;2022-08-19T06:21:23;63.53;;;60.25;;
67178;SDS011;54112;53.512;49.144;2022-08-19T06:23:50;68.50;;;63.25;;
67178;SDS011;54112;53.512;49.144;2022-08-19T06:26:18;70.93;;;67.13;;
67178;SDS011;54112;53.512;49.144;2022-08-19T06:28:44;73.72;;;68.38;;
67178;SDS011;54112;53.512;49.144;2022-08-19T06:31:19;76.55;;;71.95;;
67178;SDS011;54112;53.512;49.144;2022-08-19T06:33:46;70.70;;;65.97;;
67178;SDS011;54112;53.512;49.144;2022-08-19T06:36:19;61.33;;;57.95;;
67178;SDS011;54112;53.512;49.144;2022-08-19T06:38:45;68.93;;;64.60;;
67178;SDS011;54112;53.512;49.144;2022-08-19T06:41:11;62.90;;;59.53;;
67178;SDS011;54112;53.512;49.144;2022-08-19T06:43:37;65.85;;;62.92;;
67178;SDS011;54112;53.512;49.144;2022-08-19T06:46:03;63.45;;;60.20;;
67178;SDS011;54112;53.512;49.144;2022-08-19T06:48:29;60.65;;;57.35;;
67178;SDS011;54112;53.512;49.144;2022-08-19T06:50:55;65.82;;;61.60;;
67178;SDS011;54112;53.512;49.144;2022-08-19T06:53:21;74.35;;;70.20;;
67178;SDS011;54112;53.512;49.144;2022-08-19T06:55:47;64.72;;;61.03;;
67178;SDS011;54112;53.512;49.144;2022-08-19T06:58:13;76.43;;;72.10;;
67178;SDS011;54112;53.512;49.144;2022-08-19T07:00:39;72.20;;;69.15;;
67178;SDS011;54112;53.512;49.144;2022-08-19T07:03:05;73.80;;;69.85;;
67178;SDS011;54112;53.512;49.144;2022-08-19T07:05:31;69.05;;;66.00;;
67178;SDS011;54112;53.512;49.144;2022-08-19T07:07:56;63.47;;;60.13;;
67178;SDS011;54112;53.512;49.144;2022-08-19T07:10:22;74.72;;;70.53;;
67178;SDS011;54112;53.512;49.144;2022-08-19T07:12:48;74.03;;;70.10;;
67178;SDS011;54112;53.512;49.144;2022-08-19T07:15:15;72.88;;;68.25;;
67178;SDS011;54112;53.512;49.144;2022-08-19T07:17:41;69.22;;;64.35;;
67178;SDS011;54112;53.512;49.144;2022-08-19T07:20:09;77.60;;;73.40;;
67178;SDS011;54112;53.512;49.144;2022-08-19T07:22:38;75.68;;;70.93;;
67178;SDS011;54112;53.512;49.144;2022-08-19T07:25:05;75.82;;;72.07;;
67178;SDS011;54112;53.512;49.144;2022-08-19T07:27:31;74.80;;;71.22;;
67178;SDS011;54112;53.512;49.144;2022-08-19T07:29:57;74.40;;;69.85;;
67178;SDS011;54112;53.512;49.144;2022-08-19T07:32:23;74.00;;;69.72;;
67178;SDS011;54112;53.512;49.144;2022-08-19T07:34:51;77.13;;;72.70;;
67178;SDS011;54112;53.512;49.144;2022-08-19T07:37:17;62.08;;;58.35;;
67178;SDS011;54112;53.512;49.144;2022-08-19T07:39:43;74.47;;;70.70;;
67178;SDS011;54112;53.512;49.144;2022-08-19T07:42:09;66.25;;;62.25;;
67178;SDS011;54112;53.512;49.144;2022-08-19T07:44:36;63.30;;;59.00;;
67178;SDS011;54112;53.512;49.144;2022-08-19T07:47:02;73.38;;;69.07;;
67178;SDS011;54112;53.512;49.144;2022-08-19T07:49:28;74.00;;;68.88;;
67178;SDS011;54112;53.512;49.144;2022-08-19T07:51:56;69.57;;;66.30;;
67178;SDS011;54112;53.512;49.144;2022-08-19T07:54:23;66.25;;;62.22;;
67178;SDS011;54112;53.512;49.144;2022-08-19T07:56:49;65.85;;;62.63;;
67178;SDS011;54112;53.512;49.144;2022-08-19T07:59:17;70.95;;;66.47;;
67178;SDS011;54112;53.512;49.144;2022-08-19T08:01:43;61.72;;;58.58;;
67178;SDS011;54112;53.512;49.144;2022-08-19T08:04:10;77.72;;;73.93;;
67178;SDS011;54112;53.512;49.144;2022-08-19T08:06:54;76.65;;;72.40;;
67178;SDS011;54112;53.512;49.144;2022-08-19T08:09:40;78.15;;;73.13;;
67178;SDS011;54112;53.512;49.144;2022-08-19T08:12:17;64.10;;;60.63;;
67178;SDS011;54112;53.512;49.144;2022-08-19T08:14:51;133.63;;;127.60;;
67178;SDS011;54112;53.512;49.144;2022-08-19T08:17:18;114.32;;;109.20;;
67178;SDS011;54112;53.512;49.144;2022-08-19T08:19:45;108.85;;;103.70;;
67178;SDS011;54112;53.512;49.144;2022-08-19T08:22:11;112.35;;;107.55;;
67178;SDS011;54112;53.512;49.144;2022-08-19T08:24:56;105.07;;;100.65;;
67178;SDS011;54112;53.512;49.144;2022-08-19T08:27:23;106.13;;;101.35;;
67178;SDS011;54112;53.512;49.144;2022-08-19T08:29:49;106.40;;;101.47;;
67178;SDS011;54112;53.512;49.144;2022-08-19T08:32:15;100.90;;;96.30;;
67178;SDS011;54112;53.512;49.144;2022-08-19T08:34:41;99.32;;;94.95;;
67178;SDS011;54112;53.512;49.144;2022-08-19T08:37:07;102.35;;;97.90;;
67178;SDS011;54112;53.512;49.144;2022-08-19T08:39:33;105.70;;;100.22;;
67178;SDS011;54112;53.512;49.144;2022-08-19T08:42:16;96.63;;;91.45;;
67178;SDS011;54112;53.512;49.144;2022-08-19T08:47:15;101.78;;;96.53;;
67178;SDS011;54112;53.512;49.144;2022-08-19T08:49:50;102.07;;;96.70;;
67178;SDS011;54112;53.512;49.144;2022-08-19T08:52:19;104.75;;;100.45;;
67178;SDS011;54112;53.512;49.144;2022-08-19T08:54:47;99.22;;;94.47;;
67178;SDS011;54112;53.512;49.144;2022-08-19T08:57:15;102.07;;;97.82;;
67178;SDS011;54112;53.512;49.144;2022-08-19T08:59:43;96.93;;;93.13;;
67178;SDS011;54112;53.512;49.144;2022-08-19T09:02:11;105.72;;;101.05;;
67178;SDS011;54112;53.512;49.144;2022-08-19T09:04:36;97.65;;;93.47;;
67178;SDS011;54112;53.512;49.144;2022-08-19T09:07:15;99.40;;;94.97;;
67178;SDS011;54112;53.512;49.144;2022-08-19T09:09:51;103.93;;;99.35;;
67178;SDS011;54112;53.512;49.144;2022-08-19T09:13:19;96.50;;;91.53;;
67178;SDS011;54112;53.512;49.144;2022-08-19T09:15:14;95.50;;;91.28;;
67178;SDS011;54112;53.512;49.144;2022-08-19T09:17:41;97.60;;;93.05;;
67178;SDS011;54112;53.512;49.144;2022-08-19T09:22:36;111.53;;;105.03;;
67178;SDS011;54112;53.512;49.144;2022-08-19T09:25:02;98.90;;;93.38;;
67178;SDS011;54112;53.512;49.144;2022-08-19T09:27:30;99.07;;;94.43;;
67178;SDS011;54112;53.512;49.144;2022-08-19T09:29:55;96.93;;;91.13;;
67178;SDS011;54112;53.512;49.144;2022-08-19T09:32:22;98.70;;;93.45;;
67178;SDS011;54112;53.512;49.144;2022-08-19T09:34:48;93.18;;;88.88;;
67178;SDS011;54112;53.512;49.144;2022-08-19T09:37:14;98.28;;;93.47;;
67178;SDS011;54112;53.512;49.144;2022-08-19T09:39:40;95.90;;;91.40;;
67178;SDS011;54112;53.512;49.144;2022-08-19T09:42:06;105.10;;;100.05;;
67178;SDS011;54112;53.512;49.144;2022-08-19T09:44:40;95.47;;;90.25;;
67178;SDS011;54112;53.512;49.144;2022-08-19T09:47:06;98.65;;;94.22;;
67178;SDS011;54112;53.512;49.144;2022-08-19T09:49:32;91.38;;;87.25;;
67178;SDS011;54112;53.512;49.144;2022-08-19T09:51:58;95.25;;;90.53;;
67178;SDS011;54112;53.512;49.144;2022-08-19T09:54:25;96.30;;;92.28;;
67178;SDS011;54112;53.512;49.144;2022-08-19T09:56:51;95.43;;;90.68;;
67178;SDS011;54112;53.512;49.144;2022-08-19T09:59:18;99.20;;;94.57;;
67178;SDS011;54112;53.512;49.144;2022-08-19T10:01:44;92.18;;;87.93;;
67178;SDS011;54112;53.512;49.144;2022-08-19T10:04:10;94.40;;;89.82;;
67178;SDS011;54112;53.512;49.144;2022-08-19T10:06:38;88.75;;;84.25;;
67178;SDS011;54112;53.512;49.144;2022-08-19T10:09:05;99.90;;;95.10;;
67178;SDS011;54112;53.512;49.144;2022-08-19T10:11:32;94.68;;;90.30;;
67178;SDS011;54112;53.512;49.144;2022-08-19T10:13:58;94.85;;;90.45;;
67178;SDS011;54112;53.512;49.144;2022-08-19T10:16:24;102.38;;;97.28;;
67178;SDS011;54112;53.512;49.144;2022-08-19T10:18:51;95.13;;;90.57;;
67178;SDS011;54112;53.512;49.144;2022-08-19T10:21:19;97.15;;;92.90;;
67178;SDS011;54112;53.512;49.144;2022-08-19T10:23:48;99.20;;;94.75;;
67178;SDS011;54112;53.512;49.144;2022-08-19T10:26:17;97.90;;;93.78;;
67178;SDS011;54112;53.512;49.144;2022-08-19T10:28:44;97.28;;;92.50;;
67178;SDS011;54112;53.512;49.144;2022-08-19T10:31:11;91.47;;;87.53;;
67178;SDS011;54112;53.512;49.144;2022-08-19T10:33:38;98.90;;;94.38;;
67178;SDS011;54112;53.512;49.144;2022-08-19T10:36:08;94.25;;;89.10;;
67178;SDS011;54112;53.512;49.144;2022-08-19T10:38:35;94.10;;;89.15;;
67178;SDS011;54112;53.512;49.144;2022-08-19T10:41:08;102.60;;;97.65;;
67178;SDS011;54112;53.512;49.144;2022-08-19T10:43:34;92.25;;;88.28;;
67178;SDS011;54112;53.512;49.144;2022-08-19T10:46:05;95.13;;;89.18;;
67178;SDS011;54112;53.512;49.144;2022-08-19T10:48:31;100.43;;;95.68;;
67178;SDS011;54112;53.512;49.144;2022-08-19T10:50:57;100.47;;;95.30;;
67178;SDS011;54112;53.512;49.144;2022-08-19T10:53:41;93.70;;;89.07;;
67178;SDS011;54112;53.512;49.144;2022-08-19T10:56:07;105.03;;;100.03;;
67178;SDS011;54112;53.512;49.144;2022-08-19T10:58:52;98.95;;;93.68;;
67178;SDS011;54112;53.512;49.144;2022-08-19T11:01:17;98.32;;;93.53;;
67178;SDS011;54112;53.512;49.144;2022-08-19T11:03:43;90.50;;;86.25;;
67178;SDS011;54112;53.512;49.144;2022-08-19T11:06:10;100.88;;;95.63;;
67178;SDS011;54112;53.512;49.144;2022-08-19T11:08:37;90.15;;;85.88;;
67178;SDS011;54112;53.512;49.144;2022-08-19T11:11:03;92.07;;;87.05;;
67178;SDS011;54112;53.512;49.144;2022-08-19T11:13:33;99.53;;;95.10;;
67178;SDS011;54112;53.512;49.144;2022-08-19T11:16:05;102.43;;;97.00;;
67178;SDS011;54112;53.512;49.144;2022-08-19T11:18:34;100.32;;;95.35;;
67178;SDS011;54112;53.512;49.144;2022-08-19T11:21:07;97.68;;;93.18;;
67178;SDS011;54112;53.512;49.144;2022-08-19T11:23:32;91.27;;;87.37;;
67178;SDS011;54112;53.512;49.144;2022-08-19T11:25:58;91.38;;;86.35;;
67178;SDS011;54112;53.512;49.144;2022-08-19T11:28:24;91.70;;;87.32;;
67178;SDS011;54112;53.512;49.144;2022-08-19T11:30:52;89.15;;;85.22;;
67178;SDS011;54112;53.512;49.144;2022-08-19T11:33:18;88.22;;;84.55;;
67178;SDS011;54112;53.512;49.144;2022-08-19T11:35:44;87.43;;;83.68;;
67178;SDS011;54112;53.512;49.144;2022-08-19T11:38:10;93.00;;;88.60;;
67178;SDS011;54112;53.512;49.144;2022-08-19T11:40:37;94.20;;;89.95;;
67178;SDS011;54112;53.512;49.144;2022-08-19T11:43:03;98.95;;;94.25;;
67178;SDS011;54112;53.512;49.144;2022-08-19T11:45:29;89.30;;;84.93;;
67178;SDS011;54112;53.512;49.144;2022-08-19T11:47:55;91.35;;;86.95;;
67178;SDS011;54112;53.512;49.144;2022-08-19T11:50:21;86.10;;;81.57;;
67178;SDS011;54112;53.512;49.144;2022-08-19T11:52:48;86.32;;;82.05;;
67178;SDS011;54112;53.512;49.144;2022-08-19T11:55:15;88.72;;;84.85;;
67178;SDS011;54112;53.512;49.144;2022-08-19T11:57:41;93.47;;;89.45;;
67178;SDS011;54112;53.512;49.144;2022-08-19T12:00:09;92.82;;;88.97;;
67178;SDS011;54112;53.512;49.144;2022-08-19T12:02:37;95.45;;;91.15;;
67178;SDS011;54112;53.512;49.144;2022-08-19T12:05:03;100.95;;;96.10;;
67178;SDS011;54112;53.512;49.144;2022-08-19T12:07:29;97.18;;;92.78;;
67178;SDS011;54112;53.512;49.144;2022-08-19T12:09:59;91.68;;;86.88;;
67178;SDS011;54112;53.512;49.144;2022-08-19T12:12:24;88.88;;;84.97;;
67178;SDS011;54112;53.512;49.144;2022-08-19T12:14:51;88.63;;;84.68;;
67178;SDS011;54112;53.512;49.144;2022-08-19T12:17:25;95.03;;;90.40;;
67178;SDS011;54112;53.512;49.144;2022-08-19T12:19:51;91.35;;;86.85;;
67178;SDS011;54112;53.512;49.144;2022-08-19T12:22:17;88.88;;;85.07;;
67178;SDS011;54112;53.512;49.144;2022-08-19T12:24:43;98.68;;;94.55;;
67178;SDS011;54112;53.512;49.144;2022-08-19T12:27:09;93.10;;;88.35;;
67178;SDS011;54112;53.512;49.144;2022-08-19T12:29:35;96.63;;;91.75;;
67178;SDS011;54112;53.512;49.144;2022-08-19T12:32:02;91.22;;;86.95;;
67178;SDS011;54112;53.512;49.144;2022-08-19T12:34:29;97.10;;;92.18;;
67178;SDS011;54112;53.512;49.144;2022-08-19T12:37:00;91.28;;;86.65;;
67178;SDS011;54112;53.512;49.144;2022-08-19T12:39:26;93.05;;;87.60;;
67178;SDS011;54112;53.512;49.144;2022-08-19T12:41:52;93.10;;;89.00;;
67178;SDS011;54112;53.512;49.144;2022-08-19T12:44:18;95.82;;;91.70;;
67178;SDS011;54112;53.512;49.144;2022-08-19T12:46:44;95.32;;;91.30;;
67178;SDS011;54112;53.512;49.144;2022-08-19T12:49:10;86.82;;;82.80;;
67178;SDS011;54112;53.512;49.144;2022-08-19T12:51:35;97.68;;;92.38;;
67178;SDS011;54112;53.512;49.144;2022-08-19T12:54:02;90.55;;;86.45;;
67178;SDS011;54112;53.512;49.144;2022-08-19T12:56:29;90.70;;;85.93;;
67178;SDS011;54112;53.512;49.144;2022-08-19T12:58:55;83.47;;;79.55;;
67178;SDS011;54112;53.512;49.144;2022-08-19T13:01:21;89.43;;;85.45;;
67178;SDS011;54112;53.512;49.144;2022-08-19T13:03:46;88.35;;;83.63;;
67178;SDS011;54112;53.512;49.144;2022-08-19T13:06:12;86.97;;;83.43;;
67178;SDS011;54112;53.512;49.144;2022-08-19T13:08:39;93.55;;;90.00;;
67178;SDS011;54112;53.512;49.144;2022-08-19T13:11:12;92.30;;;87.60;;
67178;SDS011;54112;53.512;49.144;2022-08-19T13:13:39;100.20;;;95.45;;
67178;SDS011;54112;53.512;49.144;2022-08-19T13:16:06;99.35;;;93.40;;
67178;SDS011;54112;53.512;49.144;2022-08-19T13:18:32;88.00;;;83.88;;
67178;SDS011;54112;53.512;49.144;2022-08-19T13:21:02;86.13;;;82.00;;
67178;SDS011;54112;53.512;49.144;2022-08-19T13:23:28;98.10;;;93.47;;
67178;SDS011;54112;53.512;49.144;2022-08-19T13:26:01;95.72;;;91.65;;
67178;SDS011;54112;53.512;49.144;2022-08-19T13:31:17;98.60;;;94.00;;
67178;SDS011;54112;53.512;49.144;2022-08-19T13:34:02;88.72;;;83.07;;
67178;SDS011;54112;53.512;49.144;2022-08-19T13:36:28;90.20;;;86.18;;
67178;SDS011;54112;53.512;49.144;2022-08-19T13:38:53;88.43;;;84.20;;
67178;SDS011;54112;53.512;49.144;2022-08-19T13:41:20;92.25;;;88.50;;
67178;SDS011;54112;53.512;49.144;2022-08-19T13:43:45;96.35;;;91.78;;
67178;SDS011;54112;53.512;49.144;2022-08-19T13:46:11;88.25;;;83.43;;
67178;SDS011;54112;53.512;49.144;2022-08-19T13:48:40;88.70;;;84.63;;
67178;SDS011;54112;53.512;49.144;2022-08-19T13:51:07;96.60;;;92.03;;
67178;SDS011;54112;53.512;49.144;2022-08-19T13:53:35;93.85;;;89.18;;
67178;SDS011;54112;53.512;49.144;2022-08-19T13:56:07;92.22;;;86.55;;
67178;SDS011;54112;53.512;49.144;2022-08-19T13:58:33;89.13;;;84.00;;
67178;SDS011;54112;53.512;49.144;2022-08-19T14:00:59;89.03;;;84.80;;
67178;SDS011;54112;53.512;49.144;2022-08-19T14:03:25;96.38;;;91.70;;
67178;SDS011;54112;53.512;49.144;2022-08-19T14:05:51;91.22;;;86.72;;
67178;SDS011;54112;53.512;49.144;2022-08-19T14:08:17;95.47;;;91.45;;
67178;SDS011;54112;53.512;49.144;2022-08-19T14:10:43;98.63;;;93.18;;
67178;SDS011;54112;53.512;49.144;2022-08-19T14:13:12;92.15;;;87.22;;
67178;SDS011;54112;53.512;49.144;2022-08-19T14:15:38;89.45;;;85.07;;
67178;SDS011;54112;53.512;49.144;2022-08-19T14:18:04;99.95;;;95.18;;
67178;SDS011;54112;53.512;49.144;2022-08-19T14:20:30;84.65;;;80.55;;